Time;durP1;ratioP1;P1;durP2;ratioP2;P2;SDS_P1;SDS_P2;PMS_P1;PMS_P2;Temp;Humidity;BMP_temperature;BMP_pressure;BME280_temperature;BME280_humidity;BME280_pressure;Samples;Min_cycle;Max_cycle;Signal;HPM_P1;HPM_P2
2022/11/25 00:01:30;;;;;;;8.10;2.83;;;10.20;99.90;;;;;;4976096;28;20206;-57
2022/11/25 00:04:01;;;;;;;10.77;2.37;;;10.00;99.90;;;;;;4971676;28;21061;-58
2022/11/25 00:06:31;;;;;;;7.87;2.23;;;9.90;99.90;;;;;;4980140;28;20210;-58
2022/11/25 00:09:01;;;;;;;6.87;2.20;;;9.90;99.90;;;;;;4984424;28;20207;-58
2022/11/25 00:11:34;;;;;;;4.40;2.00;;;9.80;99.90;;;;;;4981892;28;20195;-57
2022/11/25 00:14:03;;;;;;;3.90;2.20;;;9.70;99.90;;;;;;4982159;28;20221;-58
2022/11/25 00:16:31;;;;;;;3.73;1.87;;;9.70;99.90;;;;;;4967390;28;20211;-58
2022/11/25 00:19:01;;;;;;;5.40;1.77;;;9.60;99.90;;;;;;4978670;28;20264;-58
2022/11/25 00:21:33;;;;;;;3.80;1.80;;;9.60;99.90;;;;;;4996896;28;20199;-58
2022/11/25 00:24:04;;;;;;;6.53;1.63;;;9.50;99.90;;;;;;5005342;28;20555;-58
2022/11/25 00:26:34;;;;;;;2.63;1.43;;;9.40;99.90;;;;;;4999297;28;20199;-57
2022/11/25 00:29:05;;;;;;;2.73;1.20;;;9.30;99.90;;;;;;4972270;28;20684;-57
2022/11/25 00:31:36;;;;;;;2.17;1.30;;;9.20;99.90;;;;;;4985815;28;20195;-57
2022/11/25 00:34:06;;;;;;;3.20;1.57;;;9.20;99.90;;;;;;5008976;28;20196;-58
2022/11/25 00:36:37;;;;;;;4.47;1.30;;;9.20;99.90;;;;;;4981302;28;20202;-57
2022/11/25 00:39:07;;;;;;;1.20;1.20;;;9.10;99.90;;;;;;4998789;28;20199;-58
2022/11/25 00:44:38;;;;;;;1.70;1.40;;;9.10;99.90;;;;;;4979612;28;20204;-57
2022/11/25 00:47:10;;;;;;;3.57;1.50;;;9.00;99.90;;;;;;4976967;28;20208;-56
2022/11/25 00:49:41;;;;;;;3.90;1.50;;;9.00;99.90;;;;;;4973957;28;20205;-58
2022/11/25 00:52:13;;;;;;;2.10;1.20;;;9.00;99.90;;;;;;4981769;28;21156;-58
2022/11/25 00:54:43;;;;;;;3.37;1.30;;;9.00;99.90;;;;;;5029908;28;20218;-58
2022/11/25 00:57:11;;;;;;;3.40;1.33;;;8.90;99.90;;;;;;4985777;28;20650;-57
2022/11/25 00:59:40;;;;;;;4.77;1.23;;;8.90;99.90;;;;;;5003292;28;20195;-58
2022/11/25 01:02:10;;;;;;;3.60;1.37;;;8.90;99.90;;;;;;4990968;28;20199;-57
2022/11/25 01:04:40;;;;;;;1.60;1.20;;;8.90;99.90;;;;;;4973793;28;20191;-57
2022/11/25 01:07:08;;;;;;;3.10;1.30;;;8.90;99.90;;;;;;5012492;28;20199;-58
2022/11/25 01:09:37;;;;;;;2.57;1.47;;;8.90;99.90;;;;;;4974655;28;20225;-57
2022/11/25 01:12:06;;;;;;;2.27;1.37;;;8.90;99.90;;;;;;4978473;28;20221;-57
2022/11/25 01:14:34;;;;;;;2.40;1.23;;;8.90;99.90;;;;;;4983936;28;20276;-57
2022/11/25 01:17:03;;;;;;;3.70;1.33;;;8.80;99.90;;;;;;4978618;28;20196;-58
2022/11/25 01:19:31;;;;;;;2.13;1.30;;;8.80;99.90;;;;;;4986881;28;20248;-58
2022/11/25 01:22:01;;;;;;;2.57;1.30;;;8.80;99.90;;;;;;5019746;28;20637;-57
2022/11/25 01:24:29;;;;;;;2.83;1.40;;;8.70;99.90;;;;;;4977310;28;20249;-57
2022/11/25 01:26:57;;;;;;;1.63;1.30;;;8.70;99.90;;;;;;4982459;28;20226;-57
2022/11/25 01:29:26;;;;;;;3.87;1.40;;;8.70;99.90;;;;;;4980070;28;20225;-57
2022/11/25 01:31:55;;;;;;;2.60;1.60;;;8.60;99.90;;;;;;4978641;28;20208;-57
2022/11/25 01:34:25;;;;;;;2.90;1.50;;;8.60;99.90;;;;;;4978813;28;20286;-57
2022/11/25 01:36:54;;;;;;;2.80;1.40;;;8.60;99.90;;;;;;5018065;28;20226;-57
2022/11/25 01:39:24;;;;;;;1.93;1.20;;;8.60;99.90;;;;;;4980839;28;20199;-57
2022/11/25 01:41:59;;;;;;;4.83;1.90;;;8.60;99.90;;;;;;4987960;28;20286;-57
2022/11/25 01:44:29;;;;;;;1.97;1.60;;;8.50;99.90;;;;;;4978480;28;20201;-58
2022/11/25 01:47:03;;;;;;;1.53;1.40;;;8.60;99.90;;;;;;4987746;28;20195;-57
2022/11/25 01:49:35;;;;;;;2.00;1.30;;;8.60;99.90;;;;;;5070323;28;20195;-58
2022/11/25 01:52:10;;;;;;;1.77;1.67;;;8.60;99.90;;;;;;5068180;28;20222;-58
2022/11/25 01:54:46;;;;;;;4.20;1.60;;;8.60;99.90;;;;;;4979856;28;20199;-57
2022/11/25 01:57:20;;;;;;;4.23;1.63;;;8.60;99.90;;;;;;4991379;28;20213;-57
2022/11/25 01:59:52;;;;;;;2.00;1.40;;;8.60;99.90;;;;;;4986061;28;20590;-57
2022/11/25 02:02:21;;;;;;;4.33;1.70;;;8.60;99.90;;;;;;5018380;28;20220;-57
2022/11/25 02:04:50;;;;;;;9.87;2.07;;;8.50;99.90;;;;;;4978296;28;20654;-58
2022/11/25 02:07:27;;;;;;;3.20;1.63;;;8.50;99.90;;;;;;4975613;28;20203;-58
2022/11/25 02:09:58;;;;;;;1.63;1.53;;;8.50;99.90;;;;;;4983262;28;20386;-58
2022/11/25 02:12:27;;;;;;;7.50;2.00;;;8.50;99.90;;;;;;4987662;28;20210;-58
2022/11/25 02:14:58;;;;;;;4.10;1.77;;;8.50;99.90;;;;;;4972371;28;20203;-58
2022/11/25 02:17:27;;;;;;;5.33;2.00;;;8.50;99.90;;;;;;4987577;28;20211;-58
2022/11/25 02:20:01;;;;;;;7.30;1.97;;;8.50;99.90;;;;;;4998695;28;20701;-58
2022/11/25 02:22:40;;;;;;;5.17;1.90;;;8.50;99.90;;;;;;5014730;28;20471;-57
2022/11/25 02:25:15;;;;;;;1.93;1.80;;;8.50;99.90;;;;;;4969522;28;20223;-57
2022/11/25 02:27:46;;;;;;;6.67;2.10;;;8.50;99.90;;;;;;5007423;28;20226;-57
2022/11/25 02:30:14;;;;;;;5.80;2.10;;;8.40;99.90;;;;;;4972392;28;20202;-58
2022/11/25 02:32:44;;;;;;;4.67;2.00;;;8.40;99.90;;;;;;4993300;28;20217;-57
2022/11/25 02:35:26;;;;;;;5.13;2.17;;;8.30;99.90;;;;;;4973796;28;20200;-57
2022/11/25 02:37:57;;;;;;;4.93;1.87;;;8.30;99.90;;;;;;4980040;28;20558;-58
2022/11/25 02:40:28;;;;;;;3.67;2.10;;;8.30;99.90;;;;;;4983689;28;20703;-57
2022/11/25 02:42:59;;;;;;;4.00;2.00;;;8.30;99.90;;;;;;4988771;28;20530;-57
2022/11/25 02:45:45;;;;;;;6.93;2.00;;;8.30;99.90;;;;;;4995328;28;20188;-57
2022/11/25 02:48:14;;;;;;;4.53;2.17;;;8.30;99.90;;;;;;4984590;28;20215;-57
2022/11/25 02:50:43;;;;;;;5.87;1.83;;;8.30;99.90;;;;;;4987531;28;20191;-57
2022/11/25 02:53:11;;;;;;;5.83;2.10;;;8.30;99.90;;;;;;4990255;28;20207;-57
2022/11/25 02:55:41;;;;;;;4.27;1.97;;;8.30;99.90;;;;;;4983213;28;20211;-57
2022/11/25 02:58:10;;;;;;;3.50;2.10;;;8.30;99.90;;;;;;4979899;28;20198;-57
2022/11/25 03:00:38;;;;;;;8.83;2.20;;;8.30;99.90;;;;;;5005567;28;20203;-57
2022/11/25 03:03:07;;;;;;;9.87;2.70;;;8.30;99.90;;;;;;4980314;28;20327;-57
2022/11/25 03:05:36;;;;;;;7.33;2.13;;;8.30;99.90;;;;;;4981491;28;20561;-57
2022/11/25 03:08:05;;;;;;;10.10;2.60;;;8.40;99.90;;;;;;4976579;28;20199;-57
2022/11/25 03:10:34;;;;;;;9.60;2.43;;;8.40;99.90;;;;;;4981338;28;20282;-55
2022/11/25 03:13:04;;;;;;;7.93;2.57;;;8.50;99.90;;;;;;5012799;28;20597;-57
2022/11/25 03:15:32;;;;;;;11.87;2.90;;;8.50;99.90;;;;;;4978720;28;20215;-57
2022/11/25 03:18:01;;;;;;;13.83;2.80;;;8.50;99.90;;;;;;5003783;28;20191;-57
2022/11/25 03:20:29;;;;;;;5.67;2.60;;;8.60;99.90;;;;;;4984113;28;20234;-57
2022/11/25 03:22:57;;;;;;;9.60;3.43;;;8.60;99.90;;;;;;4976868;28;20225;-57
2022/11/25 03:25:26;;;;;;;13.17;3.00;;;8.60;99.90;;;;;;4974678;28;20205;-57
2022/11/25 03:27:54;;;;;;;13.93;2.90;;;8.60;99.90;;;;;;4996500;28;20230;-57
2022/11/25 03:30:26;;;;;;;18.33;3.87;;;8.50;99.90;;;;;;4985360;28;20222;-57
2022/11/25 03:32:54;;;;;;;12.83;2.80;;;8.50;99.90;;;;;;4974765;28;20203;-57
2022/11/25 03:35:23;;;;;;;15.33;2.93;;;8.60;99.90;;;;;;4976660;28;20198;-57
2022/11/25 03:37:51;;;;;;;16.50;3.33;;;8.70;99.90;;;;;;4982920;28;20229;-57
2022/11/25 03:40:19;;;;;;;10.60;3.53;;;8.70;99.90;;;;;;4982626;28;20202;-57
2022/11/25 03:42:48;;;;;;;9.97;3.10;;;8.70;99.90;;;;;;4980220;28;20198;-56
2022/11/25 03:45:17;;;;;;;11.17;2.80;;;8.70;99.90;;;;;;4985348;28;20239;-57
2022/11/25 03:47:46;;;;;;;14.67;3.73;;;8.70;99.90;;;;;;4974697;28;20244;-57
2022/11/25 03:50:16;;;;;;;9.77;3.30;;;8.70;99.90;;;;;;4981009;28;20407;-57
2022/11/25 03:52:44;;;;;;;14.03;3.17;;;8.80;99.90;;;;;;4978997;28;20194;-57
2022/11/25 03:55:12;;;;;;;6.23;3.50;;;8.80;99.90;;;;;;4971126;28;20654;-57
2022/11/25 03:57:41;;;;;;;12.63;3.37;;;8.70;99.90;;;;;;4994760;28;20221;-58
2022/11/25 04:00:12;;;;;;;10.97;3.40;;;8.70;99.90;;;;;;4971120;28;20199;-57
2022/11/25 04:02:41;;;;;;;14.03;3.60;;;8.80;99.90;;;;;;4981127;28;20208;-57
2022/11/25 04:05:11;;;;;;;10.97;3.57;;;8.80;99.90;;;;;;4983126;28;20203;-57
2022/11/25 04:07:39;;;;;;;10.80;3.47;;;8.70;99.90;;;;;;4983698;28;20204;-58
2022/11/25 04:10:08;;;;;;;8.73;3.20;;;8.60;99.90;;;;;;4986445;28;20277;-58
2022/11/25 04:12:47;;;;;;;11.17;3.57;;;8.60;99.90;;;;;;4986957;28;20206;-56
2022/11/25 04:15:16;;;;;;;8.90;3.10;;;8.60;99.90;;;;;;4977089;28;20191;-58
2022/11/25 04:17:48;;;;;;;12.17;3.50;;;8.60;99.90;;;;;;4980460;28;20215;-58
2022/11/25 04:20:17;;;;;;;13.93;3.57;;;8.60;99.90;;;;;;5016744;28;20238;-57
2022/11/25 04:22:46;;;;;;;10.67;3.77;;;8.60;99.90;;;;;;4983238;28;20218;-57
2022/11/25 04:25:15;;;;;;;12.70;3.70;;;8.60;99.90;;;;;;4969829;28;20200;-57
2022/11/25 04:27:43;;;;;;;12.63;3.73;;;8.60;99.90;;;;;;5001698;28;20241;-57
2022/11/25 04:30:12;;;;;;;11.90;3.67;;;8.60;99.90;;;;;;4999514;28;20198;-57
2022/11/25 04:32:40;;;;;;;11.23;3.90;;;8.60;99.90;;;;;;4978621;28;20642;-57
2022/11/25 04:35:09;;;;;;;15.07;4.10;;;8.60;99.90;;;;;;5011282;28;20202;-58
2022/11/25 04:37:39;;;;;;;18.07;4.13;;;8.60;99.90;;;;;;4982537;28;20222;-57
2022/11/25 04:40:08;;;;;;;15.13;4.30;;;8.50;99.90;;;;;;4987340;28;20259;-57
2022/11/25 04:42:38;;;;;;;11.73;3.60;;;8.50;99.90;;;;;;4986056;28;20215;-57
2022/11/25 04:45:09;;;;;;;16.73;4.00;;;8.50;99.90;;;;;;4994282;28;20244;-57
2022/11/25 04:47:52;;;;;;;8.60;3.33;;;8.40;99.90;;;;;;4975486;28;20562;-58
2022/11/25 04:50:23;;;;;;;9.03;3.80;;;8.40;99.90;;;;;;4985190;28;20592;-57
2022/11/25 04:52:53;;;;;;;9.40;3.40;;;8.30;99.90;;;;;;4987581;28;20561;-57
2022/11/25 04:55:21;;;;;;;8.73;3.77;;;8.30;99.90;;;;;;4985523;28;20316;-56
2022/11/25 04:57:50;;;;;;;12.10;3.50;;;8.20;99.90;;;;;;4994505;28;20728;-57
2022/11/25 05:00:19;;;;;;;13.63;3.53;;;8.20;99.90;;;;;;4980724;28;20591;-57
2022/11/25 05:03:11;;;;;;;18.60;3.50;;;8.20;99.90;;;;;;4977830;28;20202;-57
2022/11/25 05:05:39;;;;;;;9.03;3.40;;;8.20;99.90;;;;;;5021695;28;20186;-58
2022/11/25 05:08:09;;;;;;;11.23;3.77;;;8.10;99.90;;;;;;4976732;28;20196;-57
2022/11/25 05:10:37;;;;;;;9.70;3.57;;;8.20;99.90;;;;;;5000456;28;20203;-58
2022/11/25 05:13:06;;;;;;;8.93;3.27;;;8.20;99.90;;;;;;4984319;28;20190;-57
2022/11/25 05:15:34;;;;;;;14.87;3.60;;;8.10;99.90;;;;;;4983032;28;20200;-58
2022/11/25 05:18:02;;;;;;;7.73;3.23;;;8.10;99.90;;;;;;4986037;28;20211;-58
2022/11/25 05:20:31;;;;;;;11.43;3.40;;;8.00;99.90;;;;;;4976273;28;20231;-57
2022/11/25 05:23:00;;;;;;;5.00;2.70;;;8.00;99.90;;;;;;4978438;28;20203;-57
2022/11/25 05:25:29;;;;;;;9.00;3.17;;;7.90;99.90;;;;;;4986483;28;20203;-57
2022/11/25 05:27:58;;;;;;;13.97;3.40;;;7.80;99.90;;;;;;4979502;28;20223;-58
2022/11/25 05:30:26;;;;;;;10.07;3.00;;;7.80;99.90;;;;;;4982908;28;20209;-57
2022/11/25 05:32:54;;;;;;;8.00;2.67;;;7.70;99.90;;;;;;4981977;28;20221;-56
2022/11/25 05:35:22;;;;;;;23.17;5.40;;;7.60;99.90;;;;;;4974605;28;20257;-57
2022/11/25 05:37:51;;;;;;;18.70;6.57;;;7.60;99.90;;;;;;4998377;28;20218;-57
2022/11/25 05:40:19;;;;;;;11.37;3.80;;;7.50;99.90;;;;;;4990635;28;20191;-57
2022/11/25 05:42:49;;;;;;;17.90;5.63;;;7.40;99.90;;;;;;4981775;28;20199;-57
2022/11/25 05:45:17;;;;;;;17.67;7.17;;;7.30;99.90;;;;;;4980134;28;20201;-56
2022/11/25 05:47:46;;;;;;;12.63;5.93;;;7.30;99.90;;;;;;4980564;28;20189;-57
2022/11/25 05:50:14;;;;;;;14.70;3.80;;;7.30;99.90;;;;;;5001052;28;20553;-57
2022/11/25 05:52:42;;;;;;;7.73;3.50;;;7.30;99.90;;;;;;5002140;28;20691;-57
2022/11/25 05:55:10;;;;;;;11.60;3.57;;;7.30;99.90;;;;;;4983060;28;20200;-57
2022/11/25 05:57:39;;;;;;;14.20;4.37;;;7.30;99.90;;;;;;4995760;28;20230;-57
2022/11/25 06:00:09;;;;;;;5.87;3.50;;;7.40;99.90;;;;;;4981349;28;20546;-57
2022/11/25 06:02:38;;;;;;;13.93;4.57;;;7.40;99.90;;;;;;4983564;28;20199;-57
2022/11/25 06:05:06;;;;;;;11.23;4.57;;;7.40;99.90;;;;;;4980763;28;20257;-57
2022/11/25 06:07:35;;;;;;;8.77;3.30;;;7.40;99.90;;;;;;4976969;28;20260;-57
2022/11/25 06:10:03;;;;;;;15.00;3.53;;;7.40;99.90;;;;;;4982646;28;20305;-57
2022/11/25 06:12:32;;;;;;;11.03;3.67;;;7.40;99.90;;;;;;4981472;28;20207;-57
2022/11/25 06:15:00;;;;;;;14.10;3.43;;;7.40;99.90;;;;;;4987418;28;20203;-57
2022/11/25 06:17:30;;;;;;;18.77;3.60;;;7.40;99.90;;;;;;4981076;28;20734;-57
2022/11/25 06:19:59;;;;;;;8.30;3.10;;;7.40;99.90;;;;;;4975273;28;20234;-56
2022/11/25 06:22:27;;;;;;;12.53;3.60;;;7.30;99.90;;;;;;4982122;28;20191;-57
2022/11/25 06:24:55;;;;;;;12.33;3.27;;;7.30;99.90;;;;;;4983192;28;20278;-57
2022/11/25 06:27:30;;;;;;;7.00;3.13;;;7.30;99.90;;;;;;4982718;28;20348;-57
2022/11/25 06:30:19;;;;;;;4.17;2.97;;;7.30;99.90;;;;;;4980124;28;20222;-57
2022/11/25 06:32:49;;;;;;;5.73;3.53;;;7.30;99.90;;;;;;4979543;28;20330;-57
2022/11/25 06:35:17;;;;;;;10.10;3.17;;;7.30;99.90;;;;;;4983509;28;20200;-57
2022/11/25 06:37:45;;;;;;;8.13;3.83;;;7.30;99.90;;;;;;5001939;28;20704;-57
2022/11/25 06:40:14;;;;;;;12.70;3.20;;;7.30;99.90;;;;;;5017814;28;20195;-55
2022/11/25 06:42:42;;;;;;;10.67;3.37;;;7.40;99.90;;;;;;5005906;28;20195;-57
2022/11/25 06:45:11;;;;;;;18.87;3.90;;;7.40;99.90;;;;;;4987528;28;20643;-57
2022/11/25 06:47:39;;;;;;;8.53;3.53;;;7.40;99.90;;;;;;4977540;28;20188;-57
2022/11/25 06:50:10;;;;;;;13.13;3.73;;;7.40;99.90;;;;;;4977741;28;20561;-57
2022/11/25 06:52:38;;;;;;;10.80;3.80;;;7.50;99.90;;;;;;4977668;28;20195;-57
2022/11/25 06:55:07;;;;;;;9.37;3.93;;;7.40;99.90;;;;;;4980687;28;20199;-57
2022/11/25 06:57:35;;;;;;;7.30;3.50;;;7.50;99.90;;;;;;4988624;28;20226;-57
2022/11/25 07:00:04;;;;;;;10.40;4.10;;;7.50;99.90;;;;;;4981960;28;20191;-57
2022/11/25 07:02:52;;;;;;;12.83;4.53;;;7.50;99.90;;;;;;4978987;28;20200;-57
2022/11/25 07:05:22;;;;;;;16.30;4.37;;;7.50;99.90;;;;;;5006408;28;20222;-57
2022/11/25 07:07:50;;;;;;;8.47;3.73;;;7.50;99.90;;;;;;4993511;28;20662;-57
2022/11/25 07:10:19;;;;;;;12.53;4.47;;;7.50;99.90;;;;;;4988868;28;20191;-58
2022/11/25 07:12:47;;;;;;;13.93;4.40;;;7.40;99.90;;;;;;4984434;28;20195;-57
2022/11/25 07:15:15;;;;;;;15.60;4.40;;;7.40;99.90;;;;;;4983771;28;20206;-56
2022/11/25 07:17:44;;;;;;;15.90;4.60;;;7.40;99.90;;;;;;5089336;28;20546;-57
2022/11/25 07:20:12;;;;;;;13.20;4.23;;;7.40;99.90;;;;;;4974728;28;20716;-57
2022/11/25 07:22:42;;;;;;;14.27;4.50;;;7.40;99.90;;;;;;4999601;28;20262;-57
2022/11/25 07:25:10;;;;;;;21.13;5.37;;;7.40;99.90;;;;;;4980188;28;20562;-57
2022/11/25 07:27:38;;;;;;;11.03;4.30;;;7.40;99.90;;;;;;4997476;28;20527;-57
2022/11/25 07:30:08;;;;;;;18.43;4.60;;;7.40;99.90;;;;;;4983072;28;20198;-57
2022/11/25 07:32:56;;;;;;;22.80;4.93;;;7.40;99.90;;;;;;4986177;28;20207;-57
2022/11/25 07:35:25;;;;;;;20.43;5.67;;;7.40;99.90;;;;;;4973634;28;20260;-57
2022/11/25 07:37:55;;;;;;;18.80;5.43;;;7.40;99.90;;;;;;4973450;28;20222;-58
2022/11/25 07:40:23;;;;;;;14.30;5.10;;;7.40;99.90;;;;;;4986241;28;20223;-56
2022/11/25 07:42:51;;;;;;;11.83;5.03;;;7.40;99.90;;;;;;4986668;28;20217;-57
2022/11/25 07:45:20;;;;;;;20.20;5.13;;;7.40;99.90;;;;;;4988801;28;20196;-58
2022/11/25 07:47:48;;;;;;;15.00;5.17;;;7.50;99.90;;;;;;4978528;28;20289;-57
2022/11/25 07:50:17;;;;;;;18.20;4.93;;;7.60;99.90;;;;;;4995170;28;20293;-57
2022/11/25 07:52:45;;;;;;;15.97;4.57;;;7.70;99.90;;;;;;4991666;28;20198;-57
2022/11/25 07:55:15;;;;;;;22.37;4.93;;;7.80;99.90;;;;;;4977635;28;20199;-58
2022/11/25 07:57:43;;;;;;;16.03;4.73;;;8.00;99.90;;;;;;5014950;28;20679;-57
2022/11/25 08:00:13;;;;;;;21.20;5.03;;;8.20;99.90;;;;;;4983306;28;20199;-57
2022/11/25 08:02:41;;;;;;;19.57;4.47;;;8.30;99.90;;;;;;4973812;28;20210;-57
2022/11/25 08:05:10;;;;;;;13.40;4.53;;;8.30;99.90;;;;;;4976190;28;20306;-57
2022/11/25 08:07:39;;;;;;;13.03;4.53;;;8.30;99.90;;;;;;4979990;28;20203;-57
2022/11/25 08:10:08;;;;;;;16.70;4.77;;;8.30;99.90;;;;;;4979366;28;20691;-57
2022/11/25 08:12:37;;;;;;;24.17;5.10;;;8.30;99.90;;;;;;4995924;28;20191;-58
2022/11/25 08:15:07;;;;;;;12.77;4.23;;;8.20;99.90;;;;;;4999401;28;20222;-57
2022/11/25 08:17:35;;;;;;;21.43;5.03;;;8.30;99.90;;;;;;4996464;28;20195;-57
2022/11/25 08:20:04;;;;;;;22.37;5.30;;;8.30;99.90;;;;;;4972205;28;20247;-57
2022/11/25 08:22:32;;;;;;;14.30;4.70;;;8.30;99.90;;;;;;4980606;28;20199;-57
2022/11/25 08:25:00;;;;;;;21.50;4.83;;;8.30;99.90;;;;;;4975638;28;20208;-57
2022/11/25 08:27:29;;;;;;;17.53;5.57;;;8.30;99.90;;;;;;4980166;28;20187;-57
2022/11/25 08:29:58;;;;;;;16.70;5.77;;;8.30;99.90;;;;;;4992628;28;20199;-57
2022/11/25 08:32:26;;;;;;;13.73;4.83;;;8.30;99.90;;;;;;4982902;28;20704;-57
2022/11/25 08:34:55;;;;;;;15.17;4.63;;;8.40;99.90;;;;;;4977965;28;20203;-57
2022/11/25 08:37:24;;;;;;;19.30;5.30;;;8.30;99.90;;;;;;4973688;28;20206;-57
2022/11/25 08:39:52;;;;;;;16.13;4.60;;;8.40;99.90;;;;;;4976982;28;20218;-57
2022/11/25 08:42:21;;;;;;;8.87;4.40;;;8.40;99.90;;;;;;4987203;28;20210;-57
2022/11/25 08:44:53;;;;;;;17.30;4.30;;;8.40;99.90;;;;;;4976254;28;20187;-57
2022/11/25 08:47:25;;;;;;;11.73;4.00;;;8.40;99.90;;;;;;4985776;28;20197;-57
2022/11/25 08:49:54;;;;;;;9.83;4.53;;;8.40;99.90;;;;;;4977537;28;20704;-57
2022/11/25 08:52:23;;;;;;;13.27;4.67;;;8.40;99.90;;;;;;4974406;28;20210;-57
2022/11/25 08:54:51;;;;;;;13.37;4.20;;;8.30;99.90;;;;;;4976189;28;20204;-57
2022/11/25 08:57:20;;;;;;;14.27;4.63;;;8.30;99.90;;;;;;4984815;28;20188;-57
2022/11/25 08:59:48;;;;;;;14.33;4.23;;;8.30;99.90;;;;;;4983117;28;20219;-57
2022/11/25 09:02:17;;;;;;;9.63;4.13;;;8.30;99.90;;;;;;4972583;28;20554;-57
2022/11/25 09:04:47;;;;;;;14.07;4.27;;;8.20;99.90;;;;;;4977497;28;20246;-57
2022/11/25 09:07:16;;;;;;;11.70;4.17;;;8.30;99.90;;;;;;4979457;28;20206;-57
2022/11/25 09:09:44;;;;;;;8.07;3.50;;;8.30;99.90;;;;;;4973743;28;20192;-57
2022/11/25 09:12:12;;;;;;;18.17;4.60;;;8.20;99.90;;;;;;4982905;28;20200;-57
2022/11/25 09:14:41;;;;;;;18.53;4.67;;;8.20;99.90;;;;;;4977757;28;20200;-57
2022/11/25 09:17:10;;;;;;;12.17;3.97;;;8.30;99.90;;;;;;4985610;28;20199;-57
2022/11/25 09:19:39;;;;;;;12.13;4.43;;;8.40;99.90;;;;;;4989718;28;20227;-57
2022/11/25 09:22:09;;;;;;;14.77;3.80;;;8.50;99.90;;;;;;4986117;28;20215;-57
2022/11/25 09:24:37;;;;;;;11.70;3.83;;;8.50;99.90;;;;;;4987081;28;20195;-57
2022/11/25 09:27:05;;;;;;;24.90;8.20;;;8.50;99.90;;;;;;4984461;28;20197;-56
2022/11/25 09:29:34;;;;;;;19.57;7.10;;;8.40;99.90;;;;;;4993986;28;20626;-57
2022/11/25 09:32:03;;;;;;;16.57;5.10;;;8.40;99.90;;;;;;4987947;28;20268;-57
2022/11/25 09:34:31;;;;;;;75.40;31.20;;;8.60;99.90;;;;;;4979648;28;20195;-56
2022/11/25 09:37:00;;;;;;;44.90;22.97;;;8.90;99.90;;;;;;4980770;28;20199;-57
2022/11/25 09:39:29;;;;;;;34.33;18.47;;;9.10;99.90;;;;;;4984204;28;20298;-57
2022/11/25 09:48:19;;;;;;;14.00;5.13;;;9.30;99.90;;;;;;4988386;28;20203;-57
2022/11/25 09:50:56;;;;;;;12.83;4.63;;;9.60;99.90;;;;;;4975808;28;20187;-57
2022/11/25 09:53:37;;;;;;;17.53;6.47;;;10.00;99.90;;;;;;4983744;28;20286;-57
2022/11/25 09:56:19;;;;;;;25.00;15.07;;;10.40;99.90;;;;;;4986424;28;20205;-57
2022/11/25 09:58:51;;;;;;;11.07;4.40;;;10.70;99.90;;;;;;4981639;28;20203;-57
2022/11/25 10:01:24;;;;;;;12.30;6.17;;;10.80;99.90;;;;;;4985693;28;20273;-57
2022/11/25 10:03:56;;;;;;;15.27;8.73;;;11.00;99.90;;;;;;4974675;28;20227;-57
2022/11/25 10:06:29;;;;;;;14.00;7.40;;;11.00;99.90;;;;;;4974108;28;20210;-57
2022/11/25 10:09:00;;;;;;;45.57;29.87;;;11.00;99.90;;;;;;4980359;28;20199;-57
2022/11/25 10:11:46;;;;;;;15.40;6.40;;;11.00;99.90;;;;;;4980620;28;20204;-57
2022/11/25 10:14:24;;;;;;;19.67;11.43;;;11.10;99.90;;;;;;4984872;28;20567;-57
2022/11/25 10:16:58;;;;;;;24.70;10.47;;;11.10;99.90;;;;;;4980044;28;20206;-57
2022/11/25 10:19:39;;;;;;;21.07;8.93;;;11.30;99.90;;;;;;4978377;28;20235;-57
2022/11/25 10:22:20;;;;;;;17.97;8.70;;;11.30;99.90;;;;;;4980190;28;20183;-57
2022/11/25 10:24:51;;;;;;;21.90;6.27;;;11.30;99.90;;;;;;4976699;28;20202;-58
2022/11/25 10:27:27;;;;;;;15.53;4.90;;;11.30;99.90;;;;;;4976809;28;20192;-58
2022/11/25 10:30:13;;;;;;;16.57;5.53;;;11.40;99.90;;;;;;4975876;28;20569;-57
2022/11/25 10:32:45;;;;;;;12.20;5.27;;;11.40;99.90;;;;;;4985886;28;20222;-57
2022/11/25 10:35:24;;;;;;;15.50;6.83;;;11.40;99.90;;;;;;4992884;28;20249;-57
2022/11/25 10:37:55;;;;;;;31.00;16.40;;;11.50;99.90;;;;;;4973072;28;20203;-57
2022/11/25 10:40:23;;;;;;;50.80;28.57;;;11.50;99.90;;;;;;4974353;28;20222;-57
2022/11/25 10:42:53;;;;;;;74.80;38.20;;;11.50;99.90;;;;;;4983816;28;20207;-57
2022/11/25 10:45:28;;;;;;;51.60;28.20;;;11.60;99.90;;;;;;4969898;28;20522;-58
2022/11/25 10:48:13;;;;;;;24.77;15.13;;;11.60;99.90;;;;;;4976891;28;20195;-57
2022/11/25 10:50:54;;;;;;;18.00;5.57;;;11.70;99.90;;;;;;4979585;28;20203;-58
2022/11/25 10:53:25;;;;;;;23.10;5.80;;;11.70;99.90;;;;;;4980941;28;20194;-57
2022/11/25 10:56:00;;;;;;;12.43;4.50;;;11.80;99.90;;;;;;4999530;28;20557;-57
2022/11/25 10:58:33;;;;;;;13.87;4.53;;;11.90;99.90;;;;;;4973780;28;20202;-58
2022/11/25 11:01:13;;;;;;;12.73;4.13;;;11.90;99.90;;;;;;4976648;28;20210;-57
2022/11/25 11:03:43;;;;;;;16.13;4.63;;;11.90;99.90;;;;;;4984305;28;20223;-57
2022/11/25 11:06:31;;;;;;;15.97;4.27;;;12.00;99.90;;;;;;5006462;28;20307;-57
2022/11/25 11:08:59;;;;;;;19.47;6.57;;;12.20;99.90;;;;;;4983239;28;20192;-57
2022/11/25 11:11:28;;;;;;;14.93;6.03;;;12.20;99.90;;;;;;4988592;28;20199;-57
2022/11/25 11:14:13;;;;;;;25.33;15.20;;;12.20;99.90;;;;;;4984241;28;20549;-57
2022/11/25 11:16:44;;;;;;;11.83;5.47;;;12.40;99.90;;;;;;4984603;28;20235;-57
2022/11/25 11:19:22;;;;;;;20.47;7.00;;;12.40;99.90;;;;;;4973247;28;20478;-57
2022/11/25 11:21:51;;;;;;;13.23;4.93;;;12.50;99.90;;;;;;4980406;28;20561;-57
2022/11/25 11:24:26;;;;;;;20.37;9.50;;;12.60;99.90;;;;;;4977846;28;20774;-57
2022/11/25 11:27:04;;;;;;;20.70;8.23;;;12.60;99.90;;;;;;4980246;28;20646;-58
2022/11/25 11:29:34;;;;;;;14.40;4.97;;;12.70;99.90;;;;;;4981467;28;20198;-57
2022/11/25 11:32:06;;;;;;;13.77;4.90;;;12.80;99.90;;;;;;4985072;28;20654;-58
2022/11/25 11:34:54;;;;;;;17.93;8.07;;;12.80;99.90;;;;;;4988337;28;20199;-57
2022/11/25 11:37:36;;;;;;;14.73;6.03;;;12.80;99.90;;;;;;5001892;28;20206;-58
2022/11/25 11:40:30;;;;;;;15.57;5.93;;;12.90;99.90;;;;;;4989891;28;20310;-58
2022/11/25 11:43:12;;;;;;;8.30;4.73;;;13.00;99.90;;;;;;5003596;28;20204;-58
2022/11/25 11:45:59;;;;;;;9.20;3.20;;;12.80;99.90;;;;;;5006855;28;20201;-58
2022/11/25 11:48:36;;;;;;;13.93;5.10;;;12.80;99.90;;;;;;4971594;28;20212;-58
2022/11/25 11:51:15;;;;;;;12.57;4.47;;;12.70;99.90;;;;;;4974642;28;20206;-58
2022/11/25 11:53:51;;;;;;;14.70;4.93;;;12.70;99.90;;;;;;5011953;28;20206;-58
2022/11/25 11:56:28;;;;;;;15.67;5.23;;;12.70;99.90;;;;;;4983559;28;20202;-58
2022/11/25 11:59:26;;;;;;;17.73;7.43;;;12.60;99.90;;;;;;4983006;28;20205;-58
2022/11/25 12:02:13;;;;;;;15.00;5.73;;;12.70;99.90;;;;;;4985910;28;20237;-59
2022/11/25 12:04:50;;;;;;;21.07;6.90;;;12.70;99.90;;;;;;4963645;28;20214;-58
2022/11/25 12:07:26;;;;;;;11.00;5.27;;;12.80;99.90;;;;;;4983516;28;20190;-58
2022/11/25 12:10:01;;;;;;;10.70;3.57;;;12.80;99.90;;;;;;4974864;28;20206;-57
2022/11/25 12:12:35;;;;;;;8.67;2.90;;;12.80;99.90;;;;;;4977879;28;20205;-58
2022/11/25 12:15:11;;;;;;;12.63;3.30;;;12.80;99.90;;;;;;4989630;28;20204;-58
2022/11/25 12:17:48;;;;;;;12.53;3.30;;;12.80;99.90;;;;;;4981149;28;20206;-59
2022/11/25 12:20:25;;;;;;;20.77;4.83;;;12.80;99.90;;;;;;4982890;28;20680;-57
2022/11/25 12:22:59;;;;;;;10.37;4.33;;;12.80;99.90;;;;;;5006968;28;20779;-57
2022/11/25 12:25:34;;;;;;;15.77;4.63;;;12.80;99.90;;;;;;4983813;28;20207;-58
2022/11/25 12:28:08;;;;;;;12.30;4.20;;;12.90;99.90;;;;;;4979114;28;20213;-58
2022/11/25 12:30:40;;;;;;;13.70;3.67;;;12.90;99.90;;;;;;4985073;28;20191;-58
2022/11/25 12:33:19;;;;;;;8.10;3.17;;;12.70;99.90;;;;;;4989015;28;20206;-58
2022/11/25 12:35:56;;;;;;;14.13;3.37;;;12.70;99.90;;;;;;4986873;28;20201;-58
2022/11/25 12:38:33;;;;;;;10.00;2.80;;;12.70;99.90;;;;;;4979444;28;20226;-58
2022/11/25 12:41:07;;;;;;;9.87;3.27;;;12.70;99.90;;;;;;4978090;28;20222;-59
2022/11/25 12:43:42;;;;;;;13.10;3.63;;;12.90;99.90;;;;;;4988615;28;20660;-58
2022/11/25 12:46:21;;;;;;;10.90;3.43;;;13.00;99.90;;;;;;4982811;28;20576;-58
2022/11/25 12:48:53;;;;;;;14.20;3.27;;;13.10;99.90;;;;;;4975366;28;20248;-58
2022/11/25 12:51:46;;;;;;;15.67;3.43;;;13.20;99.90;;;;;;5005502;28;20206;-58
2022/11/25 12:54:25;;;;;;;9.00;2.97;;;13.20;99.90;;;;;;4975792;28;20207;-58
2022/11/25 12:57:33;;;;;;;10.13;3.03;;;13.10;99.90;;;;;;4982068;28;20715;-57
2022/11/25 13:00:11;;;;;;;13.70;4.23;;;13.00;99.90;;;;;;4981320;28;20195;-57
2022/11/25 13:03:25;;;;;;;18.20;3.93;;;13.10;99.90;;;;;;4979046;28;20585;-58
2022/11/25 13:06:17;;;;;;;14.17;4.70;;;13.10;99.90;;;;;;4975265;28;20721;-58
2022/11/25 13:08:56;;;;;;;14.33;4.20;;;13.10;99.90;;;;;;4980499;28;20543;-58
2022/11/25 13:11:52;;;;;;;15.90;4.30;;;13.20;99.90;;;;;;4995294;28;20573;-58
2022/11/25 13:14:28;;;;;;;12.20;3.63;;;13.30;99.90;;;;;;4978129;28;20204;-57
2022/11/25 13:16:58;;;;;;;9.73;3.13;;;13.20;99.90;;;;;;4983973;28;20496;-57
2022/11/25 13:19:27;;;;;;;17.20;4.23;;;13.20;99.90;;;;;;4992160;28;20247;-58
2022/11/25 13:21:59;;;;;;;13.10;3.47;;;13.10;99.90;;;;;;4989959;28;20218;-58